CYKJ

Key Lake Airport

Key Lake, Saskatchewan, Canada
METAR CYKJ 181930Z AUTO 30014G24KT 3SM -SN OVC020 M14/M17 A2933 RMK SLP979
Observed Flight Rules
Dec-18 @ 19:30 UTC (37 minutes ago) Marginal Visual Flight Rules
Wind Visibility Clouds Conditions
300° at 14 knots
 Gusting to 24 knots
3 miles
  • Overcast at 2,000' AGL
  • Light Snow
Temperatures Readings
Current -14°C / 7°F
Dewpoint -17°C / 1°F
Humidity 78%
Altimeter 29.33" Hg
Pressure 997.9 hPa
Elevation 509
METAR CYKJ 181930Z AUTO 30014G24KT 3SM -SN OVC020 M14/M17 A2933 RMK SLP979
Observed Flight Rules
Dec-18 @ 19:30 UTC
(37 minutes ago)
MVFR
Wind Visibility
300° at 14 knots
 Gusting to 24 knots
3 miles
Clouds
  • Overcast at 2,000' AGL
Conditions
  • Light Snow
Temperature Dewpoint
-14°C / 7°F -17°C / 1°F
Humidity Altimeter Pressure
78% 29.33" Hg 997.9 hPa